Terminal Aerodrome Forecast
Issued by NWS

Home | Current Version | Previous Version | Text Only | Print | Product List | Glossary Off
Versions: 1 2 3 4 5 6 7 8 9 10 11 12 13

000
FTUS44 KTSA 061125
TAFRVS
TAF
KRVS 061125Z 0612/0712 16008KT P6SM BKN250
     FM061500 19012G20KT P6SM SCT050 BKN250
     FM070100 17008KT P6SM BKN250
     FM070600 17004KT P6SM BKN150 PROB30 0706/0712 4SM -TSRA
      BKN040CB=

USA.gov is the U.S. government's official web portal to all federal, state and local government web resources and services.